createdAt,value
2019-03-25T00:02:19.693Z,26.57
2019-03-25T00:04:50.742Z,48.50
2019-03-25T00:07:21.749Z,31.20
2019-03-25T00:09:52.987Z,34.97
2019-03-25T00:12:24.034Z,37.60
2019-03-25T00:14:55.157Z,34.03
2019-03-25T00:17:26.173Z,41.03
2019-03-25T00:19:57.151Z,43.87
2019-03-25T00:22:28.455Z,34.97
2019-03-25T00:24:59.650Z,37.67
2019-03-25T00:27:30.955Z,35.83
2019-03-25T00:30:02.156Z,37.90
2019-03-25T00:32:33.421Z,33.47
2019-03-25T00:35:04.632Z,30.67
2019-03-25T00:37:35.927Z,30.80
2019-03-25T00:40:07.769Z,30.00
2019-03-25T00:42:38.758Z,26.63
2019-03-25T00:45:10.228Z,28.60
2019-03-25T00:47:41.478Z,30.70
2019-03-25T00:50:12.960Z,34.80
2019-03-25T00:52:43.992Z,31.40
2019-03-25T00:55:14.970Z,33.63
2019-03-25T00:57:46.296Z,32.27
2019-03-25T01:00:17.490Z,34.20
2019-03-25T01:02:48.482Z,35.57
2019-03-25T01:05:21.749Z,34.87
2019-03-25T01:07:52.778Z,32.33
2019-03-25T01:10:23.962Z,37.70
2019-03-25T01:12:55.020Z,39.03
2019-03-25T01:15:26.163Z,42.87
2019-03-25T01:17:57.325Z,47.17
2019-03-25T01:20:28.426Z,41.70
2019-03-25T01:22:59.568Z,49.13
2019-03-25T01:25:30.766Z,45.73
2019-03-25T01:28:01.779Z,49.70
2019-03-25T01:30:32.974Z,50.57
2019-03-25T01:33:04.200Z,45.20
2019-03-25T01:35:35.357Z,48.40
2019-03-25T01:38:06.521Z,49.43
2019-03-25T01:40:38.153Z,48.90
2019-03-25T01:43:09.483Z,44.47
2019-03-25T01:45:40.620Z,44.77
2019-03-25T01:48:11.727Z,43.63
2019-03-25T01:50:42.925Z,44.57
2019-03-25T01:53:13.921Z,45.33
2019-03-25T01:55:45.005Z,40.07
2019-03-25T01:58:15.947Z,42.97
2019-03-25T02:00:47.117Z,46.57
2019-03-25T02:03:18.231Z,39.00
2019-03-25T02:05:49.199Z,40.73
2019-03-25T02:08:20.361Z,42.23
2019-03-25T02:10:51.607Z,38.20
2019-03-25T02:13:22.814Z,41.80
2019-03-25T02:15:53.827Z,36.23
2019-03-25T02:18:24.777Z,29.30
2019-03-25T02:20:55.852Z,30.27
2019-03-25T02:23:27.181Z,28.60
2019-03-25T02:25:59.130Z,33.00
2019-03-25T02:28:30.095Z,30.23
2019-03-25T02:31:01.114Z,30.63
2019-03-25T02:33:32.125Z,28.93
2019-03-25T02:36:04.266Z,29.97
2019-03-25T02:38:36.318Z,28.80
2019-03-25T02:41:07.434Z,28.47
2019-03-25T02:43:38.564Z,33.60
2019-03-25T02:46:09.544Z,28.53
2019-03-25T02:48:40.717Z,29.27
2019-03-25T02:51:11.921Z,30.77
2019-03-25T02:53:42.975Z,26.40
2019-03-25T02:56:13.933Z,29.97
2019-03-25T02:58:44.889Z,26.13
2019-03-25T03:01:16.033Z,26.07
2019-03-25T03:03:46.992Z,28.17
2019-03-25T03:06:17.950Z,25.07
2019-03-25T03:08:49.057Z,23.97
2019-03-25T03:11:20.058Z,25.83
2019-03-25T03:13:51.132Z,25.07
2019-03-25T03:16:22.061Z,26.53
2019-03-25T03:18:53.287Z,27.40
2019-03-25T03:21:24.347Z,26.73
2019-03-25T03:23:55.417Z,26.37
2019-03-25T03:26:26.423Z,24.83
2019-03-25T03:28:57.539Z,25.53
2019-03-25T03:31:28.560Z,29.80
2019-03-25T03:34:00.054Z,29.27
2019-03-25T03:36:31.376Z,32.17
2019-03-25T03:39:02.371Z,24.33
2019-03-25T03:41:33.588Z,26.27
2019-03-25T03:44:04.930Z,26.83
2019-03-25T03:46:36.130Z,32.17
2019-03-25T03:49:07.214Z,27.40
2019-03-25T03:51:38.212Z,25.33
2019-03-25T03:54:09.279Z,30.73
2019-03-25T03:56:40.692Z,34.03
2019-03-25T03:59:12.100Z,23.57
2019-03-25T04:01:43.112Z,28.20
2019-03-25T04:04:14.061Z,27.73
2019-03-25T04:06:45.121Z,27.60
2019-03-25T04:09:16.122Z,33.13
2019-03-25T04:11:47.242Z,29.00
2019-03-25T04:14:18.270Z,28.10
2019-03-25T04:16:49.449Z,29.40
2019-03-25T04:19:20.485Z,34.83
2019-03-25T04:21:51.470Z,31.03
2019-03-25T04:24:22.892Z,29.73
2019-03-25T04:26:53.977Z,26.33
2019-03-25T04:29:25.235Z,28.57
2019-03-25T04:31:56.725Z,26.57
2019-03-25T04:34:28.021Z,29.37
2019-03-25T04:36:59.500Z,29.60
2019-03-25T04:39:31.186Z,30.10
2019-03-25T04:42:03.434Z,28.73
2019-03-25T04:44:34.571Z,30.03
2019-03-25T04:47:09.684Z,30.30
2019-03-25T04:49:40.877Z,29.53
2019-03-25T04:52:11.989Z,28.10
2019-03-25T04:54:43.325Z,32.03
2019-03-25T04:57:14.688Z,36.93
2019-03-25T04:59:45.721Z,26.67
2019-03-25T05:02:17.019Z,35.17
2019-03-25T05:04:48.061Z,32.23
2019-03-25T05:07:19.070Z,36.63
2019-03-25T05:09:50.115Z,52.73
2019-03-25T05:12:21.550Z,46.20
2019-03-25T05:14:52.697Z,38.63
2019-03-25T05:17:23.947Z,35.87
2019-03-25T05:19:55.142Z,33.97
2019-03-25T05:22:26.464Z,27.90
2019-03-25T05:24:57.498Z,32.33
2019-03-25T05:27:28.626Z,38.27
2019-03-25T05:29:59.688Z,31.93
2019-03-25T05:32:30.812Z,29.23
2019-03-25T05:35:01.842Z,32.60
2019-03-25T05:37:33.135Z,27.00
2019-03-25T05:40:04.751Z,32.83
2019-03-25T05:42:35.811Z,28.70
2019-03-25T05:45:07.399Z,30.73
2019-03-25T05:47:38.499Z,29.67
2019-03-25T05:50:09.750Z,33.10
2019-03-25T05:52:40.950Z,33.67
2019-03-25T05:55:12.368Z,34.47
2019-03-25T05:57:43.636Z,31.07
2019-03-25T06:00:16.644Z,26.10
2019-03-25T06:02:47.997Z,33.30
2019-03-25T06:05:19.081Z,33.27
2019-03-25T06:07:50.190Z,38.23
2019-03-25T06:10:27.441Z,38.13
2019-03-25T06:12:58.884Z,40.27
2019-03-25T06:15:30.351Z,38.77
2019-03-25T06:18:01.289Z,30.07
2019-03-25T06:20:33.455Z,38.63
2019-03-25T06:23:04.445Z,34.20
2019-03-25T06:25:35.521Z,30.57
2019-03-25T06:28:06.491Z,29.53
2019-03-25T06:30:37.804Z,29.10
2019-03-25T06:33:12.697Z,49.07
2019-03-25T06:35:41.645Z,37.27
2019-03-25T06:38:12.869Z,34.10
2019-03-25T06:40:43.958Z,34.40
2019-03-25T06:43:15.035Z,32.97
2019-03-25T06:45:46.031Z,33.70
2019-03-25T06:48:16.990Z,30.90
2019-03-25T06:50:47.971Z,28.47
2019-03-25T06:53:20.159Z,38.13
2019-03-25T06:55:51.214Z,37.20
2019-03-25T06:58:22.166Z,31.10
2019-03-25T07:00:53.140Z,23.63
2019-03-25T07:03:24.516Z,26.43
2019-03-25T07:05:56.040Z,25.10
2019-03-25T07:08:27.111Z,25.53
2019-03-25T07:10:58.654Z,26.10
2019-03-25T07:13:30.508Z,20.33
2019-03-25T07:16:01.480Z,20.23
2019-03-25T07:18:32.484Z,27.63
2019-03-25T07:21:04.603Z,15.73
2019-03-25T07:23:35.694Z,23.33
2019-03-25T07:26:06.753Z,29.23
2019-03-25T07:28:38.848Z,27.80
2019-03-25T07:31:11.033Z,40.03
2019-03-25T07:33:42.341Z,29.10
2019-03-25T07:36:15.634Z,30.40
2019-03-25T07:38:46.660Z,25.43
2019-03-25T07:41:17.685Z,25.47
2019-03-25T07:43:48.781Z,19.67
2019-03-25T07:46:19.783Z,19.00
2019-03-25T07:48:50.997Z,20.07
2019-03-25T07:51:21.955Z,23.63
2019-03-25T07:53:53.393Z,23.50
2019-03-25T07:56:24.320Z,23.93
2019-03-25T07:58:55.420Z,29.73
2019-03-25T08:01:26.712Z,26.40
2019-03-25T08:03:57.792Z,21.80
2019-03-25T08:06:29.030Z,21.00
2019-03-25T08:09:03.951Z,26.57
2019-03-25T08:11:35.614Z,23.57
2019-03-25T08:14:07.074Z,20.43
2019-03-25T08:16:38.426Z,21.73
2019-03-25T08:19:09.385Z,16.20
2019-03-25T08:21:40.373Z,22.83
2019-03-25T08:24:11.781Z,20.33
2019-03-25T08:26:43.051Z,17.47
2019-03-25T08:29:14.204Z,18.30
2019-03-25T08:31:45.261Z,19.37
2019-03-25T08:34:16.253Z,13.37
2019-03-25T08:36:47.336Z,19.83
2019-03-25T08:39:18.462Z,21.83
2019-03-25T08:41:49.532Z,35.03
2019-03-25T08:44:20.507Z,50.77
2019-03-25T08:46:53.100Z,21.10
2019-03-25T08:49:24.111Z,41.77
2019-03-25T08:51:55.138Z,23.17
2019-03-25T08:54:26.145Z,17.37
2019-03-25T08:56:57.380Z,14.67
2019-03-25T08:59:28.325Z,18.73
2019-03-25T09:01:59.434Z,16.87
2019-03-25T09:04:30.449Z,10.60
2019-03-25T09:07:01.508Z,22.43
2019-03-25T09:09:32.532Z,19.50
2019-03-25T09:12:03.542Z,18.83
2019-03-25T09:14:34.804Z,24.57
2019-03-25T09:17:05.890Z,11.50
2019-03-25T09:19:36.963Z,12.33
2019-03-25T09:22:08.262Z,10.20
2019-03-25T09:24:39.253Z,10.07
2019-03-25T09:27:10.335Z,16.80
2019-03-25T09:29:41.525Z,17.90
2019-03-25T09:32:12.615Z,14.43
2019-03-25T09:34:43.694Z,14.70
2019-03-25T09:37:15.072Z,17.40
2019-03-25T09:39:46.187Z,13.33
2019-03-25T09:42:17.765Z,12.10
2019-03-25T09:44:48.781Z,16.00
2019-03-25T09:47:19.761Z,16.83
2019-03-25T09:49:51.003Z,25.17
2019-03-25T09:52:22.116Z,17.23
2019-03-25T09:54:53.105Z,18.27
2019-03-25T09:57:24.264Z,16.53
2019-03-25T10:03:14.519Z,14.70
2019-03-25T10:05:45.656Z,25.53
2019-03-25T10:08:16.738Z,24.27
2019-03-25T10:10:48.768Z,14.33
2019-03-25T10:13:19.864Z,10.67
2019-03-25T10:15:50.804Z,18.43
2019-03-25T10:18:21.930Z,21.50
2019-03-25T10:20:52.900Z,20.70
2019-03-25T10:23:23.902Z,18.80
2019-03-25T10:25:54.978Z,15.13
2019-03-25T10:28:26.300Z,29.37
2019-03-25T10:30:57.548Z,25.77
2019-03-25T10:33:29.218Z,12.23
2019-03-25T10:36:01.522Z,15.20
2019-03-25T10:38:32.459Z,9.60
2019-03-25T10:41:03.469Z,15.20
2019-03-25T10:43:35.452Z,18.37
2019-03-25T10:46:06.757Z,16.03
2019-03-25T10:48:37.758Z,21.53
2019-03-25T10:51:09.109Z,25.83
2019-03-25T10:53:40.175Z,23.77
2019-03-25T10:56:11.333Z,14.53
2019-03-25T10:58:42.713Z,18.17
2019-03-25T11:01:13.925Z,13.80
2019-03-25T11:03:45.197Z,22.87
2019-03-25T11:06:16.257Z,13.00
2019-03-25T11:08:47.401Z,19.40
2019-03-25T11:11:18.483Z,31.03
2019-03-25T11:13:49.770Z,25.27
2019-03-25T11:16:39.504Z,13.57
2019-03-25T11:19:10.560Z,21.77
2019-03-25T11:21:41.593Z,24.53
2019-03-25T11:24:12.600Z,9.50
2019-03-25T11:26:43.630Z,19.03
2019-03-25T11:29:19.634Z,14.57
2019-03-25T11:31:50.696Z,39.10
2019-03-25T11:34:30.054Z,26.77
2019-03-25T11:37:01.458Z,28.70
2019-03-25T11:39:32.742Z,33.73
2019-03-25T11:42:03.750Z,16.70
2019-03-25T11:44:37.186Z,16.93
2019-03-25T11:47:08.346Z,24.77
2019-03-25T11:49:39.413Z,24.17
2019-03-25T11:52:12.020Z,23.23
2019-03-25T11:54:43.092Z,18.47
2019-03-25T11:57:14.095Z,17.23
2019-03-25T11:59:45.352Z,16.03
2019-03-25T12:02:17.806Z,41.17
2019-03-25T12:04:49.281Z,25.60
2019-03-25T12:07:21.647Z,47.17
2019-03-25T12:09:52.737Z,18.80
2019-03-25T12:12:23.786Z,24.97
2019-03-25T12:14:59.062Z,26.70
2019-03-25T12:17:31.698Z,23.63
2019-03-25T12:20:03.066Z,23.80
2019-03-25T12:22:41.243Z,11.80
2019-03-25T12:25:12.655Z,11.70
2019-03-25T12:31:10.450Z,14.33
2019-03-25T12:33:41.667Z,10.10
2019-03-25T12:36:12.710Z,12.23
2019-03-25T12:38:43.658Z,11.60
2019-03-25T12:41:14.750Z,16.47
2019-03-25T12:43:46.167Z,13.93
2019-03-25T12:46:17.188Z,18.70
2019-03-25T12:48:48.430Z,33.53
2019-03-25T12:51:19.660Z,13.47
2019-03-25T12:53:50.750Z,16.67
2019-03-25T12:56:21.927Z,27.47
2019-03-25T12:58:53.012Z,21.70
2019-03-25T13:01:24.281Z,18.17
2019-03-25T13:03:55.936Z,18.37
2019-03-25T13:06:27.158Z,12.83
2019-03-25T13:09:00.224Z,16.70
2019-03-25T13:11:33.064Z,7.37
2019-03-25T13:14:03.963Z,14.07
2019-03-25T13:16:35.138Z,13.03
2019-03-25T13:19:06.232Z,11.57
2019-03-25T13:21:37.609Z,11.90
2019-03-25T13:24:08.750Z,11.93
2019-03-25T13:26:40.681Z,11.13
2019-03-25T13:29:11.933Z,10.40
2019-03-25T13:31:43.061Z,10.40
2019-03-25T13:34:14.266Z,9.43
2019-03-25T13:36:45.320Z,10.60
2019-03-25T13:39:16.466Z,10.47
2019-03-25T13:41:47.617Z,8.57
2019-03-25T13:44:18.823Z,9.97
2019-03-25T13:46:50.132Z,37.60
2019-03-25T13:49:21.753Z,11.33
2019-03-25T13:51:53.805Z,9.27
2019-03-25T13:54:25.557Z,12.73
2019-03-25T13:56:56.854Z,37.10
2019-03-25T13:59:27.864Z,8.30
2019-03-25T14:01:59.151Z,9.77
2019-03-25T14:04:30.213Z,11.87
2019-03-25T14:07:01.193Z,13.03
2019-03-25T14:09:32.333Z,20.17
2019-03-25T14:12:03.583Z,17.60
2019-03-25T14:14:34.675Z,25.33
2019-03-25T14:17:05.967Z,16.90
2019-03-25T14:19:37.857Z,22.30
2019-03-25T14:22:08.953Z,41.13
2019-03-25T14:24:41.164Z,45.07
2019-03-25T14:27:12.243Z,69.93
2019-03-25T14:29:43.557Z,51.27
2019-03-25T14:32:14.757Z,27.93
2019-03-25T14:34:45.741Z,34.03
2019-03-25T14:37:16.692Z,45.80
2019-03-25T14:39:47.836Z,35.67
2019-03-25T14:42:18.824Z,38.27
2019-03-25T14:44:50.008Z,35.27
2019-03-25T14:47:21.061Z,30.97
2019-03-25T14:49:52.364Z,29.10
2019-03-25T14:52:23.408Z,22.13
2019-03-25T14:54:54.960Z,18.23
2019-03-25T14:57:26.106Z,17.63
2019-03-25T14:59:57.280Z,17.67
2019-03-25T15:02:28.288Z,16.77
2019-03-25T15:04:59.814Z,21.10
2019-03-25T15:07:34.958Z,21.13
2019-03-25T15:10:06.674Z,17.83
2019-03-25T15:12:37.713Z,16.80
2019-03-25T15:15:09.854Z,17.13
2019-03-25T15:17:41.094Z,18.33
2019-03-25T15:20:12.986Z,12.13
2019-03-25T15:22:43.930Z,11.20
2019-03-25T15:25:16.461Z,13.27
2019-03-25T15:27:47.432Z,15.90
2019-03-25T15:30:18.865Z,21.20
2019-03-25T15:32:50.054Z,20.17
2019-03-25T15:35:21.174Z,27.73
2019-03-25T15:37:52.295Z,17.37
2019-03-25T15:40:23.431Z,14.03
2019-03-25T15:42:54.629Z,16.70
2019-03-25T15:45:25.714Z,17.67
2019-03-25T15:47:56.739Z,13.83
2019-03-25T15:50:27.827Z,15.93
2019-03-25T15:52:58.939Z,12.37
2019-03-25T15:55:30.314Z,12.37
2019-03-25T15:58:01.343Z,18.33
2019-03-25T16:00:32.503Z,14.90
2019-03-25T16:03:03.492Z,14.50
2019-03-25T16:05:34.683Z,15.13
2019-03-25T16:08:05.689Z,13.60
2019-03-25T16:10:36.990Z,11.87
2019-03-25T16:13:07.977Z,16.07
2019-03-25T16:15:40.898Z,20.27
2019-03-25T16:18:18.830Z,16.63
2019-03-25T16:20:49.946Z,18.93
2019-03-25T16:23:20.966Z,16.47
2019-03-25T16:25:51.966Z,13.60
2019-03-25T16:28:23.146Z,20.23
2019-03-25T16:30:59.080Z,18.47
2019-03-25T16:33:26.944Z,15.77
2019-03-25T16:35:58.352Z,14.17
2019-03-25T16:38:29.428Z,13.10
2019-03-25T16:41:00.528Z,15.80
2019-03-25T16:43:31.654Z,20.03
2019-03-25T16:46:02.754Z,14.87
2019-03-25T16:48:33.855Z,13.73
2019-03-25T16:51:06.484Z,15.07
2019-03-25T16:53:37.499Z,20.07
2019-03-25T16:56:08.637Z,16.13
2019-03-25T16:58:39.789Z,16.37
2019-03-25T17:01:10.835Z,15.40
2019-03-25T17:03:42.022Z,17.17
2019-03-25T17:06:13.099Z,17.60
2019-03-25T17:08:44.113Z,13.30
2019-03-25T17:11:15.191Z,17.50
2019-03-25T17:13:47.728Z,17.23
2019-03-25T17:16:18.976Z,28.53
2019-03-25T17:18:50.891Z,22.73
2019-03-25T17:21:21.972Z,13.90
2019-03-25T17:23:53.542Z,19.73
2019-03-25T17:26:25.492Z,17.73
2019-03-25T17:28:57.082Z,19.67
2019-03-25T17:31:28.766Z,21.57
2019-03-25T17:34:00.295Z,19.97
2019-03-25T17:36:31.252Z,13.93
2019-03-25T17:39:03.359Z,16.63
2019-03-25T17:41:34.910Z,20.07
2019-03-25T17:44:06.140Z,20.23
2019-03-25T17:46:37.471Z,13.67
2019-03-25T17:49:08.701Z,10.50
2019-03-25T17:51:40.378Z,10.83
2019-03-25T17:54:11.796Z,11.80
2019-03-25T17:56:42.932Z,10.00
2019-03-25T17:59:14.252Z,14.87
2019-03-25T18:01:45.616Z,15.70
2019-03-25T18:04:16.858Z,13.33
2019-03-25T18:06:48.368Z,15.57
2019-03-25T18:09:19.579Z,16.70
2019-03-25T18:11:51.066Z,15.23
2019-03-25T18:14:22.731Z,16.47
2019-03-25T18:16:56.919Z,12.50
2019-03-25T18:19:28.387Z,14.38
2019-03-25T18:22:01.669Z,16.50
2019-03-25T18:24:34.863Z,15.03
2019-03-25T18:27:07.425Z,14.43
2019-03-25T18:29:39.147Z,17.37
2019-03-25T18:32:10.675Z,13.93
2019-03-25T18:34:41.908Z,15.77
2019-03-25T18:37:13.119Z,14.90
2019-03-25T18:39:44.488Z,13.60
2019-03-25T18:42:15.697Z,17.47
2019-03-25T18:44:46.907Z,15.17
2019-03-25T18:47:18.262Z,18.30
2019-03-25T18:49:50.768Z,19.50
2019-03-25T18:52:22.147Z,19.80
2019-03-25T18:54:55.428Z,19.20
2019-03-25T18:57:26.554Z,18.80
2019-03-25T19:00:02.381Z,21.73
2019-03-25T19:02:39.392Z,19.20
2019-03-25T19:05:14.326Z,18.63
2019-03-25T19:07:47.505Z,19.47
2019-03-25T19:10:27.272Z,21.77
2019-03-25T19:12:58.482Z,22.47
2019-03-25T19:15:32.532Z,21.60
2019-03-25T19:18:03.854Z,21.27
2019-03-25T19:20:43.237Z,23.70
2019-03-25T19:23:19.407Z,20.43
2019-03-25T19:25:52.235Z,22.73
2019-03-25T19:28:24.248Z,25.60
2019-03-25T19:30:56.166Z,24.47
2019-03-25T19:33:27.712Z,22.20
2019-03-25T19:36:00.902Z,20.00
2019-03-25T19:38:33.794Z,23.47
2019-03-25T19:41:05.485Z,20.87
2019-03-25T19:43:39.362Z,18.93
2019-03-25T19:46:14.051Z,19.30
2019-03-25T19:48:45.729Z,19.40
2019-03-25T19:51:17.114Z,24.40
2019-03-25T19:53:49.931Z,24.10
2019-03-25T19:56:25.265Z,22.93
2019-03-25T19:58:56.554Z,25.40
2019-03-25T20:01:27.844Z,22.20
2019-03-25T20:04:01.378Z,21.70
2019-03-25T20:06:33.691Z,22.23
2019-03-25T20:09:06.649Z,25.13
2019-03-25T20:11:38.031Z,28.83
2019-03-25T20:14:09.176Z,25.27
2019-03-25T20:16:40.335Z,26.93
2019-03-25T20:19:12.034Z,25.17
2019-03-25T20:21:43.095Z,20.53
2019-03-25T20:24:14.267Z,22.13
2019-03-25T20:26:45.548Z,21.13
2019-03-25T20:29:16.974Z,20.57
2019-03-25T20:31:48.276Z,20.70
2019-03-25T20:34:19.467Z,21.30
2019-03-25T20:36:50.492Z,21.07
2019-03-25T20:39:21.980Z,22.30
2019-03-25T20:41:54.173Z,26.27
2019-03-25T20:44:25.598Z,28.17
2019-03-25T20:46:56.776Z,22.13
2019-03-25T20:49:28.152Z,23.70
2019-03-25T20:51:59.278Z,25.53
2019-03-25T20:54:30.614Z,27.87
2019-03-25T20:57:01.905Z,28.33
2019-03-25T20:59:33.267Z,28.10
2019-03-25T21:02:04.540Z,28.47
2019-03-25T21:04:35.700Z,28.73
2019-03-25T21:07:07.035Z,32.30
2019-03-25T21:09:38.065Z,28.90
2019-03-25T21:12:09.145Z,28.13
2019-03-25T21:14:40.361Z,32.87
2019-03-25T21:17:12.627Z,30.70
2019-03-25T21:19:44.158Z,28.67
2019-03-25T21:22:15.427Z,32.73
2019-03-25T21:24:46.842Z,31.87
2019-03-25T21:27:22.098Z,33.33
2019-03-25T21:29:54.492Z,32.60
2019-03-25T21:32:25.650Z,36.20
2019-03-25T21:34:56.819Z,34.07
2019-03-25T21:37:28.021Z,34.70
2019-03-25T21:39:59.281Z,34.00
2019-03-25T21:42:30.411Z,32.50
2019-03-25T21:45:02.859Z,38.00
2019-03-25T21:47:34.084Z,40.27
2019-03-25T21:50:05.533Z,39.30
2019-03-25T21:52:36.825Z,43.90
2019-03-25T21:55:08.078Z,39.77
2019-03-25T21:57:39.175Z,46.10
2019-03-25T22:00:12.217Z,45.20
2019-03-25T22:02:43.742Z,47.70
2019-03-25T22:05:14.994Z,50.27
2019-03-25T22:07:46.895Z,63.60
2019-03-25T22:10:18.014Z,59.50
2019-03-25T22:12:49.294Z,56.13
2019-03-25T22:15:20.762Z,55.83
2019-03-25T22:17:51.760Z,56.77
2019-03-25T22:20:22.860Z,50.93
2019-03-25T22:22:54.159Z,50.53
2019-03-25T22:25:25.197Z,49.63
2019-03-25T22:27:56.531Z,47.53
2019-03-25T22:30:28.142Z,49.40
2019-03-25T22:32:59.319Z,47.70
2019-03-25T22:35:30.898Z,49.10
2019-03-25T22:38:02.360Z,45.33
2019-03-25T22:40:33.402Z,47.07
2019-03-25T22:43:11.096Z,46.43
2019-03-25T22:45:42.857Z,47.77
2019-03-25T22:48:13.957Z,48.00
2019-03-25T22:50:45.197Z,44.00
2019-03-25T22:53:16.375Z,44.00
2019-03-25T22:55:47.706Z,45.10
2019-03-25T22:58:19.178Z,38.40
2019-03-25T23:00:50.427Z,44.30
2019-03-25T23:03:21.693Z,41.60
2019-03-25T23:05:52.899Z,44.97
2019-03-25T23:08:24.237Z,36.90
2019-03-25T23:10:56.976Z,37.33
2019-03-25T23:13:28.342Z,37.27
2019-03-25T23:15:59.709Z,33.00
2019-03-25T23:18:31.064Z,37.97
2019-03-25T23:21:02.447Z,37.70
2019-03-25T23:23:33.803Z,34.27
2019-03-25T23:26:04.944Z,28.97
2019-03-25T23:28:36.027Z,32.70
2019-03-25T23:31:07.375Z,25.97
2019-03-25T23:33:51.441Z,26.20
2019-03-25T23:36:11.663Z,29.50
2019-03-25T23:38:42.938Z,30.23
2019-03-25T23:41:14.038Z,29.43
2019-03-25T23:43:46.224Z,27.60
2019-03-25T23:46:18.846Z,36.13
2019-03-25T23:48:49.836Z,27.30
2019-03-25T23:51:23.266Z,32.13
2019-03-25T23:54:11.932Z,30.60
2019-03-25T23:56:43.579Z,29.47
2019-03-25T23:59:14.889Z,30.33
